Time;durP1;ratioP1;P1;durP2;ratioP2;P2;SDS_P1;SDS_P2;PMS_P1;PMS_P2;Temp;Humidity;BMP_temperature;BMP_pressure;BME280_temperature;BME280_humidity;BME280_pressure;Samples;Min_cycle;Max_cycle;Signal;HPM_P1;HPM_P2
2021/01/20 00:02:17;;;;;;;6.37;2.60;;;;;;;;;;5026902;28;20178;-58
2021/01/20 00:04:55;;;;;;;4.83;2.90;;;;;;;;;;5030138;28;20181;-58
2021/01/20 00:07:21;;;;;;;5.43;2.57;;;;;;;;;;5029547;28;20202;-58
2021/01/20 00:09:47;;;;;;;6.23;2.57;;;;;;;;;;5029460;28;20580;-58
2021/01/20 00:12:13;;;;;;;4.67;2.23;;;;;;;;;;5028736;28;20186;-58
2021/01/20 00:14:39;;;;;;;5.30;2.50;;;;;;;;;;5028864;28;20240;-58
2021/01/20 00:17:05;;;;;;;5.47;2.50;;;;;;;;;;5028540;28;20509;-58
2021/01/20 00:19:31;;;;;;;4.63;2.40;;;;;;;;;;5011686;28;20193;-59
2021/01/20 00:21:58;;;;;;;4.73;2.50;;;;;;;;;;5029847;28;20653;-58
2021/01/20 00:24:24;;;;;;;3.43;2.40;;;;;;;;;;5010933;28;20331;-58
2021/01/20 00:26:50;;;;;;;5.83;3.13;;;;;;;;;;5029496;28;20263;-59
2021/01/20 00:29:16;;;;;;;3.37;2.53;;;;;;;;;;5029798;28;20181;-60
2021/01/20 00:31:42;;;;;;;5.40;2.77;;;;;;;;;;5011238;28;20182;-58
2021/01/20 00:34:08;;;;;;;3.53;2.30;;;;;;;;;;5029192;28;20663;-58
2021/01/20 00:36:34;;;;;;;4.33;2.60;;;;;;;;;;5011274;28;20540;-58
2021/01/20 00:39:00;;;;;;;4.00;2.50;;;;;;;;;;5010735;28;20277;-58
2021/01/20 00:41:26;;;;;;;5.47;2.70;;;;;;;;;;5011485;28;20284;-60
2021/01/20 00:43:52;;;;;;;4.10;2.90;;;;;;;;;;5028383;28;20186;-58
2021/01/20 00:46:18;;;;;;;4.27;2.80;;;;;;;;;;5028546;28;20192;-58
2021/01/20 00:48:45;;;;;;;6.20;3.13;;;;;;;;;;5028112;28;20182;-58
2021/01/20 00:51:13;;;;;;;4.00;2.77;;;;;;;;;;5028701;28;20185;-61
2021/01/20 00:53:39;;;;;;;4.23;2.83;;;;;;;;;;5010221;28;20598;-59
2021/01/20 00:56:06;;;;;;;5.57;3.17;;;;;;;;;;5028825;28;20282;-58
2021/01/20 00:58:32;;;;;;;5.43;3.57;;;;;;;;;;5028207;28;20185;-59
2021/01/20 01:00:59;;;;;;;4.00;2.87;;;;;;;;;;5011169;28;20239;-58
2021/01/20 01:03:25;;;;;;;3.20;2.70;;;;;;;;;;5011002;28;20196;-58
2021/01/20 01:05:51;;;;;;;4.10;2.90;;;;;;;;;;5027233;28;20185;-58
2021/01/20 01:08:17;;;;;;;4.03;2.87;;;;;;;;;;5010443;28;20366;-59
2021/01/20 01:10:43;;;;;;;4.13;3.10;;;;;;;;;;5028377;28;20293;-58
2021/01/20 01:13:09;;;;;;;4.47;3.70;;;;;;;;;;5027908;28;20259;-59
2021/01/20 01:15:35;;;;;;;3.57;3.27;;;;;;;;;;5009708;28;20204;-58
2021/01/20 01:18:01;;;;;;;4.63;3.10;;;;;;;;;;5028481;28;20189;-58
2021/01/20 01:20:27;;;;;;;5.50;2.90;;;;;;;;;;5028038;28;20263;-60
2021/01/20 01:22:56;;;;;;;4.17;3.10;;;;;;;;;;5028237;28;20709;-58
2021/01/20 01:25:22;;;;;;;4.23;3.10;;;;;;;;;;5012713;28;20189;-59
2021/01/20 01:27:48;;;;;;;5.07;3.20;;;;;;;;;;5031657;28;20262;-58
2021/01/20 01:30:14;;;;;;;2.77;2.40;;;;;;;;;;5032102;28;20189;-58
2021/01/20 01:32:40;;;;;;;3.37;2.70;;;;;;;;;;5032489;28;20174;-58
2021/01/20 01:35:07;;;;;;;5.23;2.87;;;;;;;;;;5031964;28;20192;-61
2021/01/20 01:37:33;;;;;;;5.70;3.53;;;;;;;;;;5014378;28;20288;-58
2021/01/20 01:39:59;;;;;;;3.87;2.43;;;;;;;;;;5032228;28;20686;-57
2021/01/20 01:42:25;;;;;;;3.17;2.80;;;;;;;;;;5031529;28;20188;-58
2021/01/20 01:44:51;;;;;;;5.83;3.07;;;;;;;;;;5032815;28;20555;-58
2021/01/20 01:47:17;;;;;;;4.30;2.93;;;;;;;;;;5032662;28;20291;-59
2021/01/20 01:49:45;;;;;;;4.27;2.90;;;;;;;;;;5031953;28;20182;-59
2021/01/20 01:52:11;;;;;;;5.77;3.77;;;;;;;;;;5014054;28;20174;-58
2021/01/20 01:54:37;;;;;;;5.60;3.23;;;;;;;;;;5013604;28;20656;-61
2021/01/20 01:57:03;;;;;;;3.83;2.83;;;;;;;;;;5031612;28;20544;-59
2021/01/20 01:59:30;;;;;;;4.73;3.20;;;;;;;;;;5031898;28;20182;-59
2021/01/20 02:01:56;;;;;;;4.73;3.23;;;;;;;;;;5024777;28;20174;-58
2021/01/20 02:04:22;;;;;;;3.90;3.10;;;;;;;;;;5031841;28;20606;-60
2021/01/20 02:06:55;;;;;;;7.27;4.07;;;;;;;;;;5031070;28;20347;-58
2021/01/20 02:09:22;;;;;;;3.87;2.97;;;;;;;;;;5031024;28;20291;-58
2021/01/20 02:12:03;;;;;;;4.60;3.23;;;;;;;;;;5032024;28;20181;-59
2021/01/20 02:14:29;;;;;;;4.07;3.10;;;;;;;;;;5028658;28;20232;-59
2021/01/20 02:17:07;;;;;;;4.03;3.10;;;;;;;;;;5031792;28;20660;-58
2021/01/20 02:19:52;;;;;;;5.00;2.83;;;;;;;;;;5030564;28;20633;-58
2021/01/20 02:22:32;;;;;;;3.40;2.70;;;;;;;;;;5013828;28;20190;-59
2021/01/20 02:25:12;;;;;;;3.17;2.80;;;;;;;;;;5031054;28;20188;-59
2021/01/20 02:27:43;;;;;;;4.87;2.70;;;;;;;;;;4993997;28;20241;-60
2021/01/20 02:30:10;;;;;;;3.67;2.70;;;;;;;;;;5022718;28;20601;-58
2021/01/20 02:32:37;;;;;;;5.17;2.50;;;;;;;;;;5031585;28;20540;-58
2021/01/20 02:35:04;;;;;;;3.87;2.80;;;;;;;;;;5030536;28;20181;-58
2021/01/20 02:37:31;;;;;;;3.00;2.40;;;;;;;;;;5012554;28;20181;-58
2021/01/20 02:39:58;;;;;;;2.80;2.40;;;;;;;;;;5031475;28;20193;-61
2021/01/20 02:42:24;;;;;;;4.23;2.80;;;;;;;;;;5030953;28;20208;-59
2021/01/20 02:44:50;;;;;;;3.30;2.40;;;;;;;;;;5031085;28;20185;-59
2021/01/20 02:47:16;;;;;;;3.73;2.60;;;;;;;;;;5031103;28;20723;-58
2021/01/20 02:49:42;;;;;;;4.00;2.53;;;;;;;;;;5028737;28;20664;-58
2021/01/20 02:52:08;;;;;;;7.20;2.60;;;;;;;;;;5016520;28;20360;-59
2021/01/20 02:54:34;;;;;;;4.80;2.43;;;;;;;;;;5015145;28;20186;-59
2021/01/20 02:57:02;;;;;;;3.23;2.57;;;;;;;;;;5012404;28;20178;-59
2021/01/20 02:59:28;;;;;;;4.03;2.10;;;;;;;;;;5029888;28;20197;-61
2021/01/20 03:01:55;;;;;;;3.60;2.67;;;;;;;;;;5030424;28;20188;-58
2021/01/20 03:04:22;;;;;;;3.17;2.67;;;;;;;;;;5012006;28;20352;-58
2021/01/20 03:06:49;;;;;;;4.03;2.50;;;;;;;;;;5030270;28;20210;-60
2021/01/20 03:09:16;;;;;;;5.10;2.57;;;;;;;;;;5029596;28;20208;-58
2021/01/20 03:11:49;;;;;;;4.67;2.67;;;;;;;;;;5030829;28;20206;-59
2021/01/20 03:14:16;;;;;;;3.40;2.63;;;;;;;;;;5030004;28;20193;-58
2021/01/20 03:16:42;;;;;;;3.70;2.67;;;;;;;;;;5030608;28;20178;-58
2021/01/20 03:19:08;;;;;;;2.93;2.30;;;;;;;;;;5029503;28;20231;-59
2021/01/20 03:21:34;;;;;;;2.43;2.23;;;;;;;;;;5030264;28;20182;-58
2021/01/20 03:24:00;;;;;;;3.07;2.30;;;;;;;;;;5030265;28;20636;-58
2021/01/20 03:26:26;;;;;;;3.63;2.30;;;;;;;;;;5030131;28;20280;-60
2021/01/20 03:28:52;;;;;;;4.87;2.90;;;;;;;;;;5029366;28;20625;-58
2021/01/20 03:31:19;;;;;;;4.50;2.37;;;;;;;;;;5030289;28;20639;-59
2021/01/20 03:33:45;;;;;;;3.30;2.40;;;;;;;;;;5011687;28;20182;-59
2021/01/20 03:36:11;;;;;;;2.90;2.23;;;;;;;;;;5030320;28;20188;-59
2021/01/20 03:38:37;;;;;;;5.50;2.77;;;;;;;;;;5011566;28;20640;-58
2021/01/20 03:41:03;;;;;;;3.17;2.33;;;;;;;;;;5030359;28;20186;-58
2021/01/20 03:43:29;;;;;;;4.37;2.50;;;;;;;;;;5029245;28;20228;-58
2021/01/20 03:45:55;;;;;;;2.40;2.00;;;;;;;;;;5029755;28;20283;-58
2021/01/20 03:48:21;;;;;;;4.17;2.37;;;;;;;;;;5011301;28;20201;-59
2021/01/20 03:50:47;;;;;;;3.37;2.57;;;;;;;;;;5029485;28;20209;-58
2021/01/20 03:53:13;;;;;;;4.80;2.43;;;;;;;;;;5028888;28;20182;-58
2021/01/20 03:55:39;;;;;;;3.60;2.37;;;;;;;;;;5011504;28;20691;-58
2021/01/20 03:58:05;;;;;;;3.03;2.67;;;;;;;;;;5028045;28;20240;-58
2021/01/20 04:00:31;;;;;;;3.60;2.53;;;;;;;;;;5012186;28;20248;-58
2021/01/20 04:02:57;;;;;;;4.47;2.47;;;;;;;;;;5029493;28;20185;-58
2021/01/20 04:05:24;;;;;;;3.67;2.37;;;;;;;;;;5029190;28;20201;-58
2021/01/20 04:07:50;;;;;;;2.83;2.37;;;;;;;;;;5028844;28;20206;-58
2021/01/20 04:10:16;;;;;;;4.03;2.53;;;;;;;;;;5029549;28;20671;-58
2021/01/20 04:12:42;;;;;;;3.27;2.83;;;;;;;;;;5027862;28;20201;-58
2021/01/20 04:15:09;;;;;;;4.23;2.67;;;;;;;;;;5029821;28;20256;-58
2021/01/20 04:17:38;;;;;;;3.13;2.37;;;;;;;;;;5029469;28;20184;-58
2021/01/20 04:20:05;;;;;;;6.73;2.53;;;;;;;;;;5028450;28;20182;-60
2021/01/20 04:22:31;;;;;;;2.80;2.50;;;;;;;;;;5029099;28;20231;-58
2021/01/20 04:24:57;;;;;;;3.03;2.57;;;;;;;;;;5028487;28;20214;-58
2021/01/20 04:27:24;;;;;;;4.63;2.30;;;;;;;;;;5010639;28;20232;-58
2021/01/20 04:29:50;;;;;;;3.00;2.53;;;;;;;;;;5029259;28;20189;-59
2021/01/20 04:32:16;;;;;;;3.97;2.57;;;;;;;;;;5010744;28;20178;-58
2021/01/20 04:34:42;;;;;;;3.37;2.27;;;;;;;;;;5028230;28;20208;-58
2021/01/20 04:37:08;;;;;;;3.47;2.10;;;;;;;;;;5028288;28;20769;-58
2021/01/20 04:39:34;;;;;;;4.20;2.87;;;;;;;;;;5029416;28;20190;-57
2021/01/20 04:42:00;;;;;;;3.03;2.20;;;;;;;;;;5027589;28;20226;-58
2021/01/20 04:44:26;;;;;;;2.50;2.20;;;;;;;;;;5028736;28;20218;-57
2021/01/20 04:46:53;;;;;;;3.43;2.70;;;;;;;;;;5028839;28;20296;-58
2021/01/20 04:49:19;;;;;;;2.97;2.43;;;;;;;;;;4993887;28;20181;-60
2021/01/20 04:51:47;;;;;;;2.80;2.30;;;;;;;;;;5028344;28;20240;-58
2021/01/20 04:54:13;;;;;;;3.30;2.57;;;;;;;;;;5028014;28;20301;-58
2021/01/20 04:56:40;;;;;;;2.83;2.43;;;;;;;;;;5010215;28;20196;-58
2021/01/20 04:59:06;;;;;;;4.30;2.63;;;;;;;;;;5027703;28;20178;-58
2021/01/20 05:01:32;;;;;;;5.07;2.63;;;;;;;;;;5028854;28;20690;-57
2021/01/20 05:04:02;;;;;;;3.03;2.43;;;;;;;;;;5027224;28;20280;-60
2021/01/20 05:06:29;;;;;;;2.60;2.40;;;;;;;;;;5028088;28;20281;-58
2021/01/20 05:08:55;;;;;;;2.57;2.00;;;;;;;;;;5015576;28;20197;-58
2021/01/20 05:11:35;;;;;;;4.07;2.70;;;;;;;;;;5010270;28;20217;-58
2021/01/20 05:14:11;;;;;;;3.63;2.47;;;;;;;;;;5026969;28;20204;-58
2021/01/20 05:16:37;;;;;;;3.50;2.40;;;;;;;;;;5028297;28;20193;-57
2021/01/20 05:19:04;;;;;;;3.57;2.53;;;;;;;;;;5027335;28;20201;-58
2021/01/20 05:21:30;;;;;;;3.73;2.90;;;;;;;;;;5028444;28;20190;-58
2021/01/20 05:24:16;;;;;;;2.97;2.10;;;;;;;;;;5010244;28;20173;-58
2021/01/20 05:26:45;;;;;;;4.07;2.27;;;;;;;;;;5009792;28;20181;-58
2021/01/20 05:29:12;;;;;;;3.77;2.97;;;;;;;;;;5005731;28;20173;-58
2021/01/20 05:31:39;;;;;;;4.57;2.63;;;;;;;;;;5008358;28;20178;-58
2021/01/20 05:34:05;;;;;;;4.10;2.47;;;;;;;;;;5027550;28;20217;-58
2021/01/20 05:36:31;;;;;;;3.23;2.43;;;;;;;;;;5028190;28;22073;-58
2021/01/20 05:38:57;;;;;;;3.50;2.73;;;;;;;;;;5027523;28;20190;-58
2021/01/20 05:41:24;;;;;;;2.73;2.07;;;;;;;;;;5025983;28;20625;-58
2021/01/20 05:43:52;;;;;;;2.73;2.27;;;;;;;;;;5019450;28;20300;-58
2021/01/20 05:46:31;;;;;;;2.60;2.40;;;;;;;;;;5008581;28;20178;-58
2021/01/20 05:48:57;;;;;;;3.10;2.60;;;;;;;;;;5022001;28;20190;-58
2021/01/20 05:51:23;;;;;;;3.00;2.23;;;;;;;;;;5026340;28;20189;-58
2021/01/20 05:53:50;;;;;;;4.97;2.53;;;;;;;;;;5025358;28;20177;-58
2021/01/20 05:56:16;;;;;;;2.57;2.17;;;;;;;;;;5015613;28;20240;-58
2021/01/20 05:58:42;;;;;;;2.90;2.60;;;;;;;;;;5004212;28;20178;-58
2021/01/20 06:01:12;;;;;;;2.60;2.20;;;;;;;;;;5026712;28;20312;-58
2021/01/20 06:03:38;;;;;;;3.53;2.40;;;;;;;;;;5021784;28;20177;-57
2021/01/20 06:06:05;;;;;;;3.30;2.60;;;;;;;;;;5022155;28;20186;-58
2021/01/20 06:08:32;;;;;;;2.53;2.20;;;;;;;;;;5010246;28;20719;-58
2021/01/20 06:10:58;;;;;;;4.53;2.80;;;;;;;;;;5018157;28;20217;-58
2021/01/20 06:13:24;;;;;;;4.57;2.63;;;;;;;;;;5001075;28;20219;-57
2021/01/20 06:16:14;;;;;;;3.43;2.77;;;;;;;;;;5021524;28;20759;-58
2021/01/20 06:18:45;;;;;;;2.93;2.37;;;;;;;;;;5021295;28;20190;-59
2021/01/20 06:21:12;;;;;;;3.03;2.40;;;;;;;;;;5031849;28;20160;-58
2021/01/20 06:23:38;;;;;;;3.57;2.50;;;;;;;;;;5031367;28;20192;-58
2021/01/20 06:26:12;;;;;;;3.27;2.37;;;;;;;;;;5026497;28;20185;-57
2021/01/20 06:28:40;;;;;;;3.60;2.43;;;;;;;;;;5031741;28;20212;-57
2021/01/20 06:31:07;;;;;;;2.33;2.13;;;;;;;;;;5027706;28;20255;-57
2021/01/20 06:33:34;;;;;;;3.53;2.63;;;;;;;;;;5022765;28;20174;-58
2021/01/20 06:36:00;;;;;;;2.63;2.17;;;;;;;;;;5012445;28;20621;-58
2021/01/20 06:38:28;;;;;;;2.10;1.90;;;;;;;;;;5029487;28;20197;-59
2021/01/20 06:40:55;;;;;;;3.57;2.43;;;;;;;;;;5013464;28;20180;-57
2021/01/20 06:43:32;;;;;;;5.37;2.57;;;;;;;;;;5030406;28;20185;-58
2021/01/20 06:46:11;;;;;;;2.63;2.20;;;;;;;;;;5031849;28;20296;-58
2021/01/20 06:49:06;;;;;;;3.43;2.43;;;;;;;;;;5030826;28;20238;-57
2021/01/20 06:51:33;;;;;;;3.40;2.40;;;;;;;;;;5011209;28;20220;-58
2021/01/20 06:54:02;;;;;;;3.63;2.60;;;;;;;;;;4999492;28;20266;-58
2021/01/20 06:56:32;;;;;;;6.10;2.57;;;;;;;;;;5013861;28;20202;-58
2021/01/20 06:59:13;;;;;;;5.10;2.63;;;;;;;;;;5009240;28;20178;-58
2021/01/20 07:01:39;;;;;;;2.97;2.20;;;;;;;;;;5012489;28;20271;-58
2021/01/20 07:04:05;;;;;;;3.27;2.30;;;;;;;;;;4997713;28;20628;-58
2021/01/20 07:06:34;;;;;;;6.40;3.80;;;;;;;;;;5025773;28;20541;-58
2021/01/20 07:09:01;;;;;;;5.00;2.57;;;;;;;;;;5018271;28;20641;-58
2021/01/20 07:11:27;;;;;;;7.40;2.67;;;;;;;;;;5029367;28;20200;-59
2021/01/20 07:13:53;;;;;;;3.20;2.20;;;;;;;;;;5030381;28;20166;-58
2021/01/20 07:16:19;;;;;;;3.20;2.60;;;;;;;;;;5011300;28;20178;-61
2021/01/20 07:18:47;;;;;;;3.33;2.17;;;;;;;;;;5023666;28;20178;-58
2021/01/20 07:21:13;;;;;;;2.77;2.40;;;;;;;;;;5011340;28;20183;-59
2021/01/20 07:23:40;;;;;;;3.23;2.47;;;;;;;;;;5008568;28;20633;-59
2021/01/20 07:26:06;;;;;;;3.30;2.13;;;;;;;;;;5031359;28;20174;-58
2021/01/20 07:28:32;;;;;;;2.30;2.03;;;;;;;;;;5011819;28;20197;-59
2021/01/20 07:31:05;;;;;;;2.40;2.00;;;;;;;;;;5011223;28;20268;-58
2021/01/20 07:33:32;;;;;;;3.13;2.13;;;;;;;;;;5024343;28;20182;-58
2021/01/20 07:36:08;;;;;;;2.70;1.87;;;;;;;;;;5012857;28;20182;-58
2021/01/20 07:38:34;;;;;;;3.60;2.00;;;;;;;;;;5032014;28;20184;-57
2021/01/20 07:41:12;;;;;;;2.63;1.97;;;;;;;;;;5012678;28;20213;-59
2021/01/20 07:43:38;;;;;;;2.37;2.10;;;;;;;;;;5028039;28;20754;-57
2021/01/20 07:46:12;;;;;;;2.53;1.93;;;;;;;;;;5011204;28;20186;-57
2021/01/20 07:48:38;;;;;;;2.50;1.90;;;;;;;;;;5022117;28;20317;-58
2021/01/20 07:51:04;;;;;;;2.60;2.13;;;;;;;;;;5019842;28;20197;-57
2021/01/20 07:53:30;;;;;;;3.33;2.10;;;;;;;;;;5029808;28;20687;-57
2021/01/20 07:55:57;;;;;;;2.37;2.00;;;;;;;;;;5026632;28;20240;-58
2021/01/20 07:58:26;;;;;;;5.40;2.23;;;;;;;;;;5016352;28;20177;-58
2021/01/20 08:00:52;;;;;;;2.80;2.07;;;;;;;;;;5011967;28;20632;-58
2021/01/20 08:03:32;;;;;;;3.77;2.47;;;;;;;;;;5025207;28;20324;-57
2021/01/20 08:05:58;;;;;;;2.40;2.10;;;;;;;;;;5018522;28;20170;-57
2021/01/20 08:08:24;;;;;;;5.57;2.00;;;;;;;;;;5007379;28;20209;-57
2021/01/20 08:10:50;;;;;;;3.03;2.30;;;;;;;;;;5012428;28;20222;-57
2021/01/20 08:13:17;;;;;;;4.40;2.30;;;;;;;;;;5014610;28;20540;-57
2021/01/20 08:15:44;;;;;;;2.43;1.77;;;;;;;;;;5030371;28;20174;-57
2021/01/20 08:18:12;;;;;;;2.50;1.77;;;;;;;;;;5011774;28;20181;-57
2021/01/20 08:20:39;;;;;;;2.80;2.10;;;;;;;;;;5011676;28;20747;-57
2021/01/20 08:23:11;;;;;;;2.20;2.00;;;;;;;;;;5011110;28;21471;-57
2021/01/20 08:25:38;;;;;;;3.40;2.17;;;;;;;;;;5029522;28;20178;-57
2021/01/20 08:28:14;;;;;;;3.73;2.27;;;;;;;;;;5017558;28;20198;-57
2021/01/20 08:30:40;;;;;;;2.20;1.90;;;;;;;;;;5030070;28;20211;-56
2021/01/20 08:33:06;;;;;;;1.93;1.73;;;;;;;;;;5029101;28;20449;-57
2021/01/20 08:35:36;;;;;;;2.23;1.90;;;;;;;;;;5010862;28;20272;-57
2021/01/20 08:38:03;;;;;;;2.93;1.70;;;;;;;;;;5011213;28;20561;-57
2021/01/20 08:40:29;;;;;;;1.90;1.60;;;;;;;;;;5029917;28;20177;-57
2021/01/20 08:42:55;;;;;;;3.13;2.10;;;;;;;;;;5028903;28;20182;-56
2021/01/20 08:45:21;;;;;;;2.00;1.60;;;;;;;;;;5010459;28;20252;-57
2021/01/20 08:47:59;;;;;;;2.37;2.00;;;;;;;;;;5022614;28;20221;-58
2021/01/20 08:50:28;;;;;;;2.87;2.00;;;;;;;;;;5023942;28;20193;-57
2021/01/20 08:52:55;;;;;;;2.00;1.73;;;;;;;;;;5027657;28;20215;-56
2021/01/20 08:55:31;;;;;;;2.37;1.90;;;;;;;;;;5002835;28;20508;-59
2021/01/20 08:58:16;;;;;;;2.13;1.80;;;;;;;;;;5006464;28;20312;-57
2021/01/20 09:00:43;;;;;;;4.40;1.97;;;;;;;;;;5021713;28;20193;-58
2021/01/20 09:03:19;;;;;;;2.40;2.20;;;;;;;;;;5025043;28;20255;-57
2021/01/20 09:05:46;;;;;;;2.90;2.10;;;;;;;;;;4994954;28;20186;-57
2021/01/20 09:08:13;;;;;;;2.43;1.80;;;;;;;;;;4999144;28;20221;-58
2021/01/20 09:10:39;;;;;;;2.40;2.20;;;;;;;;;;5002836;28;20547;-56
2021/01/20 09:13:05;;;;;;;2.63;2.43;;;;;;;;;;5016448;28;20162;-57
2021/01/20 09:15:31;;;;;;;2.80;2.27;;;;;;;;;;5020592;28;20174;-56
2021/01/20 09:17:58;;;;;;;3.00;2.50;;;;;;;;;;4999566;28;20214;-57
2021/01/20 09:20:24;;;;;;;2.23;2.00;;;;;;;;;;4992572;28;20189;-57
2021/01/20 09:22:50;;;;;;;2.70;1.90;;;;;;;;;;5022848;28;20628;-56
2021/01/20 09:25:16;;;;;;;2.80;1.90;;;;;;;;;;5013267;28;20175;-56
2021/01/20 09:27:43;;;;;;;3.83;2.20;;;;;;;;;;5013120;28;20202;-58
2021/01/20 09:30:09;;;;;;;2.90;2.33;;;;;;;;;;5026574;28;20174;-57
2021/01/20 09:32:36;;;;;;;2.77;1.90;;;;;;;;;;5028505;28;20166;-56
2021/01/20 09:35:04;;;;;;;2.60;2.00;;;;;;;;;;5011411;28;20177;-57
2021/01/20 09:37:30;;;;;;;4.73;2.37;;;;;;;;;;5024553;28;20175;-56
2021/01/20 09:39:56;;;;;;;2.13;1.93;;;;;;;;;;5011133;28;20174;-57
2021/01/20 09:42:22;;;;;;;3.97;2.00;;;;;;;;;;5024889;28;20191;-59
2021/01/20 09:44:48;;;;;;;5.20;1.97;;;;;;;;;;5018642;28;20668;-57
2021/01/20 09:47:14;;;;;;;2.80;2.10;;;;;;;;;;5030901;28;20201;-57
2021/01/20 09:49:42;;;;;;;2.40;1.97;;;;;;;;;;5028854;28;20174;-57
2021/01/20 09:52:10;;;;;;;2.60;2.37;;;;;;;;;;5027564;28;20247;-58
2021/01/20 09:54:36;;;;;;;3.57;2.20;;;;;;;;;;5026355;28;20186;-58
2021/01/20 09:57:03;;;;;;;2.63;2.23;;;;;;;;;;5032319;28;20178;-56
2021/01/20 09:59:29;;;;;;;3.57;2.10;;;;;;;;;;5014674;28;20304;-57
2021/01/20 10:01:55;;;;;;;4.10;2.23;;;;;;;;;;5014673;28;20185;-57
2021/01/20 10:04:21;;;;;;;2.10;1.90;;;;;;;;;;5023082;28;20264;-58
2021/01/20 10:06:47;;;;;;;2.87;2.07;;;;;;;;;;5009644;28;20190;-58
2021/01/20 10:09:13;;;;;;;3.97;2.30;;;;;;;;;;5031808;28;20280;-57
2021/01/20 10:11:39;;;;;;;2.43;1.90;;;;;;;;;;5008110;28;20650;-57
2021/01/20 10:14:05;;;;;;;2.50;2.10;;;;;;;;;;5030917;28;20181;-57
2021/01/20 10:16:31;;;;;;;2.53;2.03;;;;;;;;;;5019881;28;20652;-57
2021/01/20 10:18:58;;;;;;;2.47;2.00;;;;;;;;;;5023553;28;20235;-57
2021/01/20 10:21:24;;;;;;;2.97;2.03;;;;;;;;;;5028365;28;20189;-57
2021/01/20 10:23:50;;;;;;;2.97;2.33;;;;;;;;;;4999732;28;20190;-58
2021/01/20 10:26:16;;;;;;;3.23;2.60;;;;;;;;;;5001252;28;20193;-58
2021/01/20 10:28:43;;;;;;;3.50;2.13;;;;;;;;;;5024220;28;20213;-58
2021/01/20 10:31:09;;;;;;;2.43;2.20;;;;;;;;;;5011666;28;20728;-57
2021/01/20 10:33:35;;;;;;;2.30;2.07;;;;;;;;;;5017550;28;20186;-58
2021/01/20 10:36:01;;;;;;;4.13;2.47;;;;;;;;;;5003876;28;20186;-59
2021/01/20 10:38:27;;;;;;;6.73;2.43;;;;;;;;;;5027991;28;20220;-57
2021/01/20 10:40:53;;;;;;;3.20;2.50;;;;;;;;;;5000424;28;20276;-58
2021/01/20 10:43:19;;;;;;;3.03;2.40;;;;;;;;;;5030449;28;20536;-57
2021/01/20 10:45:45;;;;;;;3.53;2.37;;;;;;;;;;5024017;28;20182;-57
2021/01/20 10:48:11;;;;;;;4.97;2.60;;;;;;;;;;5025184;28;20206;-58
2021/01/20 10:50:37;;;;;;;4.97;2.40;;;;;;;;;;5028117;28;20188;-57
2021/01/20 10:53:03;;;;;;;3.20;2.70;;;;;;;;;;5009253;28;20268;-56
2021/01/20 10:55:29;;;;;;;2.90;2.30;;;;;;;;;;5030577;28;20266;-54
2021/01/20 10:57:55;;;;;;;3.10;2.30;;;;;;;;;;5030675;28;20298;-55
2021/01/20 11:00:22;;;;;;;2.70;2.30;;;;;;;;;;5029546;28;20188;-55
2021/01/20 11:02:48;;;;;;;2.83;1.90;;;;;;;;;;5012163;28;20718;-55
2021/01/20 11:05:14;;;;;;;2.57;2.10;;;;;;;;;;5020835;28;20235;-55
2021/01/20 11:07:40;;;;;;;3.53;2.20;;;;;;;;;;5030586;28;20525;-55
2021/01/20 11:10:06;;;;;;;4.43;2.53;;;;;;;;;;5023361;28;20206;-54
2021/01/20 11:12:32;;;;;;;2.33;1.80;;;;;;;;;;5001083;28;20232;-55
2021/01/20 11:14:58;;;;;;;3.07;2.67;;;;;;;;;;4994236;28;20174;-54
2021/01/20 11:17:26;;;;;;;4.33;2.37;;;;;;;;;;5028726;28;20213;-54
2021/01/20 11:19:52;;;;;;;3.10;2.40;;;;;;;;;;5029549;28;20666;-57
2021/01/20 11:22:18;;;;;;;4.23;2.50;;;;;;;;;;5031237;28;20298;-57
2021/01/20 11:24:44;;;;;;;4.40;2.83;;;;;;;;;;5031213;28;20178;-59
2021/01/20 11:27:10;;;;;;;3.40;2.20;;;;;;;;;;5003153;28;20261;-57
2021/01/20 11:29:36;;;;;;;6.13;2.83;;;;;;;;;;5012392;28;20241;-57
2021/01/20 11:32:02;;;;;;;4.40;2.30;;;;;;;;;;5013200;28;20177;-57
2021/01/20 11:34:28;;;;;;;4.20;2.77;;;;;;;;;;5031074;28;20628;-57
2021/01/20 11:36:54;;;;;;;3.40;2.57;;;;;;;;;;5013338;28;20202;-57
2021/01/20 11:39:21;;;;;;;3.50;2.43;;;;;;;;;;5030503;28;20232;-57
2021/01/20 11:41:48;;;;;;;4.07;2.73;;;;;;;;;;5013816;28;20259;-58
2021/01/20 11:44:14;;;;;;;3.97;2.77;;;;;;;;;;5029048;28;20337;-59
2021/01/20 11:46:40;;;;;;;3.60;2.40;;;;;;;;;;5002455;28;20194;-57
2021/01/20 11:49:07;;;;;;;3.07;2.30;;;;;;;;;;5022339;28;20185;-56
2021/01/20 11:51:35;;;;;;;2.50;2.30;;;;;;;;;;5001503;28;20170;-55
2021/01/20 11:54:01;;;;;;;4.60;2.37;;;;;;;;;;5025201;28;20220;-55
2021/01/20 11:56:27;;;;;;;2.50;2.23;;;;;;;;;;5030571;28;20181;-55
2021/01/20 11:58:53;;;;;;;3.03;2.40;;;;;;;;;;5030267;28;20330;-57
2021/01/20 12:01:22;;;;;;;3.00;2.23;;;;;;;;;;5009907;28;20181;-58
2021/01/20 12:03:48;;;;;;;3.77;2.53;;;;;;;;;;5019841;28;20902;-57
2021/01/20 12:06:14;;;;;;;6.70;3.10;;;;;;;;;;5019215;28;20620;-59
2021/01/20 12:08:40;;;;;;;3.37;2.50;;;;;;;;;;5029281;28;20216;-57
2021/01/20 12:11:06;;;;;;;5.67;2.77;;;;;;;;;;5012081;28;20301;-54
2021/01/20 12:13:32;;;;;;;2.43;2.23;;;;;;;;;;5029942;28;20173;-54
2021/01/20 12:15:58;;;;;;;4.70;2.67;;;;;;;;;;5030362;28;20243;-55
2021/01/20 12:18:24;;;;;;;4.30;2.20;;;;;;;;;;5029457;28;20262;-59
2021/01/20 12:20:50;;;;;;;4.97;2.87;;;;;;;;;;5023916;28;20258;-56
2021/01/20 12:23:16;;;;;;;3.67;2.73;;;;;;;;;;5027500;28;20585;-56
2021/01/20 12:25:42;;;;;;;2.73;2.00;;;;;;;;;;5029445;28;20182;-56
2021/01/20 12:28:08;;;;;;;3.60;2.27;;;;;;;;;;5029368;28;20224;-58
2021/01/20 12:30:34;;;;;;;3.20;2.40;;;;;;;;;;5029322;28;20216;-57
2021/01/20 12:33:00;;;;;;;6.53;2.33;;;;;;;;;;5029964;28;20257;-57
2021/01/20 12:35:26;;;;;;;4.47;2.27;;;;;;;;;;5029269;28;20169;-57
2021/01/20 12:37:52;;;;;;;3.13;2.57;;;;;;;;;;5029657;28;20279;-57
2021/01/20 12:40:18;;;;;;;3.27;2.50;;;;;;;;;;5011691;28;20269;-56
2021/01/20 12:42:44;;;;;;;2.17;1.97;;;;;;;;;;5003213;28;20292;-56
2021/01/20 12:45:11;;;;;;;3.97;2.10;;;;;;;;;;4993561;28;20544;-57
2021/01/20 12:47:37;;;;;;;2.60;2.30;;;;;;;;;;5020063;28;20216;-56
2021/01/20 12:50:04;;;;;;;4.67;2.43;;;;;;;;;;5020712;28;20178;-58
2021/01/20 12:52:30;;;;;;;3.33;2.80;;;;;;;;;;5011869;28;20182;-56
2021/01/20 12:54:56;;;;;;;4.10;2.37;;;;;;;;;;5029427;28;20212;-56
2021/01/20 12:57:22;;;;;;;6.23;3.10;;;;;;;;;;5029688;28;20267;-53
2021/01/20 12:59:48;;;;;;;3.83;2.50;;;;;;;;;;5025603;28;20250;-54
2021/01/20 13:02:14;;;;;;;3.00;2.23;;;;;;;;;;5010687;28;20347;-54
2021/01/20 13:04:40;;;;;;;3.87;2.53;;;;;;;;;;5029212;28;20261;-55
2021/01/20 13:07:06;;;;;;;3.53;2.47;;;;;;;;;;5028336;28;20628;-53
2021/01/20 13:09:32;;;;;;;3.67;2.50;;;;;;;;;;5009430;28;20225;-54
2021/01/20 13:11:58;;;;;;;4.97;2.00;;;;;;;;;;5028606;28;20230;-54
2021/01/20 13:14:24;;;;;;;2.53;2.13;;;;;;;;;;5011046;28;20197;-54
2021/01/20 13:16:50;;;;;;;3.07;2.77;;;;;;;;;;5011110;28;20197;-55
2021/01/20 13:19:16;;;;;;;3.57;2.60;;;;;;;;;;5028569;28;20174;-53
2021/01/20 13:21:42;;;;;;;2.60;2.30;;;;;;;;;;5030384;28;20178;-54
2021/01/20 13:24:08;;;;;;;3.03;2.47;;;;;;;;;;5034259;28;20177;-55
2021/01/20 13:26:35;;;;;;;4.83;2.80;;;;;;;;;;5034116;28;20647;-55
2021/01/20 13:29:01;;;;;;;3.10;2.53;;;;;;;;;;5023330;28;20532;-55
2021/01/20 13:31:33;;;;;;;3.40;2.20;;;;;;;;;;5025148;28;20178;-54
2021/01/20 13:33:59;;;;;;;3.40;2.43;;;;;;;;;;5026972;28;20597;-54
2021/01/20 13:36:25;;;;;;;2.57;2.33;;;;;;;;;;5033871;28;20174;-54
2021/01/20 13:38:51;;;;;;;3.50;2.60;;;;;;;;;;5033459;28;20614;-56
2021/01/20 13:41:17;;;;;;;3.37;2.50;;;;;;;;;;5015869;28;20184;-53
2021/01/20 13:43:43;;;;;;;3.97;2.60;;;;;;;;;;5033704;28;20181;-54
2021/01/20 13:46:09;;;;;;;3.37;2.47;;;;;;;;;;5033763;28;20178;-54
2021/01/20 13:48:35;;;;;;;3.40;2.50;;;;;;;;;;5033127;28;20718;-54
2021/01/20 13:51:01;;;;;;;2.57;2.23;;;;;;;;;;5033671;28;20216;-56
2021/01/20 13:53:27;;;;;;;4.80;2.70;;;;;;;;;;5032624;28;20184;-55
2021/01/20 13:55:53;;;;;;;4.17;2.40;;;;;;;;;;5033512;28;20173;-54
2021/01/20 13:58:19;;;;;;;5.43;2.67;;;;;;;;;;5033201;28;20177;-54
2021/01/20 14:00:45;;;;;;;3.30;2.20;;;;;;;;;;5033408;28;20185;-54
2021/01/20 14:03:11;;;;;;;3.03;2.50;;;;;;;;;;5033374;28;20173;-54
2021/01/20 14:05:37;;;;;;;5.87;2.80;;;;;;;;;;5033200;28;20185;-55
2021/01/20 14:08:04;;;;;;;2.87;2.47;;;;;;;;;;5032743;28;20233;-54
2021/01/20 14:10:30;;;;;;;5.67;2.50;;;;;;;;;;5032154;28;20562;-55
2021/01/20 14:12:56;;;;;;;3.60;2.20;;;;;;;;;;5028891;28;20180;-56
2021/01/20 14:15:22;;;;;;;3.40;2.60;;;;;;;;;;5028370;28;20261;-53
2021/01/20 14:17:48;;;;;;;3.20;2.50;;;;;;;;;;5024858;28;20229;-53
2021/01/20 14:20:14;;;;;;;2.93;2.33;;;;;;;;;;5032767;28;20220;-53
2021/01/20 14:22:40;;;;;;;4.67;2.73;;;;;;;;;;5014703;28;20178;-54
2021/01/20 14:25:07;;;;;;;5.47;3.23;;;;;;;;;;5032862;28;20205;-56
2021/01/20 14:27:34;;;;;;;3.63;2.47;;;;;;;;;;5032487;28;20194;-54
2021/01/20 14:30:00;;;;;;;3.30;2.87;;;;;;;;;;5032893;28;20549;-54
2021/01/20 14:32:26;;;;;;;4.30;2.77;;;;;;;;;;5030205;28;20177;-55
2021/01/20 14:34:52;;;;;;;2.77;2.23;;;;;;;;;;5031657;28;20232;-55
2021/01/20 14:37:18;;;;;;;3.60;2.50;;;;;;;;;;5029611;28;20173;-55
2021/01/20 14:39:46;;;;;;;4.90;2.60;;;;;;;;;;5027025;28;20181;-54
2021/01/20 14:42:13;;;;;;;4.50;2.50;;;;;;;;;;4998699;28;20241;-55
2021/01/20 14:44:39;;;;;;;4.60;2.13;;;;;;;;;;5025047;28;20204;-55